Time;durP1;ratioP1;P1;durP2;ratioP2;P2;SDS_P1;SDS_P2;PMS_P1;PMS_P2;Temp;Humidity;BMP_temperature;BMP_pressure;BME280_temperature;BME280_humidity;BME280_pressure;Samples;Min_cycle;Max_cycle;Signal;HPM_P1;HPM_P2
2024/01/22 00:02:17;;;;;;;2.40;0.88;;;;;;;1.95;39.02;100156.19;5075770;28;20040;-94
2024/01/22 00:04:43;;;;;;;1.85;0.85;;;;;;;2.35;41.72;100242.25;5074589;28;20044;-93
2024/01/22 00:07:09;;;;;;;2.70;0.70;;;;;;;2.21;44.56;100227.81;5076986;28;20055;-93
2024/01/22 00:09:35;;;;;;;1.00;0.60;;;;;;;2.00;46.06;100249.06;5077036;28;20040;-94
2024/01/22 00:12:03;;;;;;;3.00;0.95;;;;;;;1.29;45.58;100167.28;5076727;28;20397;-94
2024/01/22 00:14:29;;;;;;;2.42;0.70;;;;;;;1.48;48.31;100223.81;5077244;28;20094;-93
2024/01/22 00:16:55;;;;;;;3.65;1.17;;;;;;;1.32;47.09;100214.53;5075628;28;20041;-93
2024/01/22 00:19:21;;;;;;;3.10;1.33;;;;;;;1.11;46.20;100201.63;5076739;28;20056;-93
2024/01/22 00:21:47;;;;;;;2.17;1.05;;;;;;;0.98;40.89;100185.47;5076837;28;20500;-93
2024/01/22 00:24:13;;;;;;;1.20;0.70;;;;;;;1.58;40.17;100238.97;5077246;28;20504;-94
2024/01/22 00:26:39;;;;;;;1.83;0.55;;;;;;;1.43;41.16;100187.84;5075932;28;20131;-95
2024/01/22 00:29:07;;;;;;;0.73;0.40;;;;;;;1.74;38.35;100217.66;5076527;28;20044;-95
2024/01/22 00:31:33;;;;;;;1.48;0.60;;;;;;;1.51;38.21;100171.47;5075647;28;20032;-93
2024/01/22 00:33:59;;;;;;;1.48;0.55;;;;;;;1.85;38.66;100210.13;5076016;28;20119;-95
2024/01/22 00:36:25;;;;;;;1.08;0.68;;;;;;;2.00;38.28;100228.97;5076380;28;20086;-94
2024/01/22 00:38:50;;;;;;;2.28;0.70;;;;;;;1.55;40.99;100149.75;5075834;28;20041;-93
2024/01/22 00:41:16;;;;;;;1.98;0.82;;;;;;;1.87;44.20;100239.94;5075037;28;20079;-93
2024/01/22 00:43:43;;;;;;;3.35;0.80;;;;;;;1.47;45.24;100206.28;5075775;28;20578;-93
2024/01/22 00:46:11;;;;;;;1.10;0.60;;;;;;;1.28;47.95;100203.06;5075508;28;20041;-95
2024/01/22 00:48:36;;;;;;;2.70;1.10;;;;;;;0.99;49.34;100199.47;5076338;28;20093;-95
2024/01/22 00:51:02;;;;;;;1.58;0.70;;;;;;;1.15;50.01;100242.78;5075679;28;20048;-93
2024/01/22 00:53:28;;;;;;;3.05;0.95;;;;;;;0.57;51.97;100179.69;5075622;28;20513;-92
2024/01/22 00:55:54;;;;;;;2.90;1.00;;;;;;;0.80;53.31;100245.06;5075155;28;20170;-93
2024/01/22 00:58:20;;;;;;;1.40;0.73;;;;;;;-0.11;54.49;100178.03;5076315;28;20055;-93
2024/01/22 01:00:45;;;;;;;3.47;1.20;;;;;;;-0.12;55.59;100189.31;5074714;28;20044;-95
2024/01/22 01:03:13;;;;;;;2.70;0.80;;;;;;;0.32;54.56;100261.63;5076080;28;20497;-94
2024/01/22 01:05:38;;;;;;;2.25;1.05;;;;;;;-0.34;56.01;100212.00;5073378;28;20043;-95
2024/01/22 01:08:05;;;;;;;2.25;1.20;;;;;;;-0.68;55.15;100174.06;5079403;28;20142;-94
2024/01/22 01:10:31;;;;;;;2.42;0.93;;;;;;;-0.06;55.42;100265.41;5078897;28;20047;-92
2024/01/22 01:12:57;;;;;;;2.72;1.02;;;;;;;-0.63;54.48;100211.75;5079503;28;20055;-96
2024/01/22 01:15:24;;;;;;;2.17;0.90;;;;;;;-0.65;56.11;100222.94;5077636;28;20039;-94
2024/01/22 01:17:49;;;;;;;3.97;1.20;;;;;;;-0.76;56.60;100212.06;5079136;28;20036;-93
2024/01/22 01:20:17;;;;;;;3.88;1.50;;;;;;;-0.79;55.61;100204.09;5078785;28;20493;-93
2024/01/22 01:22:43;;;;;;;2.70;1.75;;;;;;;-1.07;57.60;100158.53;5077906;28;20048;-92
2024/01/22 01:25:09;;;;;;;3.60;1.33;;;;;;;-0.81;57.44;100213.56;5078187;28;20044;-94
2024/01/22 01:27:34;;;;;;;2.97;1.20;;;;;;;-0.48;60.11;100252.38;5078980;28;20043;-93
2024/01/22 01:30:01;;;;;;;4.70;1.85;;;;;;;-0.92;59.78;100194.84;5079332;28;20039;-94
2024/01/22 01:32:27;;;;;;;4.57;1.88;;;;;;;-1.23;59.03;100197.88;5075670;28;20131;-94
2024/01/22 01:34:52;;;;;;;4.60;1.58;;;;;;;-1.15;60.06;100192.97;5078438;28;20130;-93
2024/01/22 01:37:20;;;;;;;2.42;1.38;;;;;;;-1.05;59.40;100188.22;5077441;28;20058;-94
2024/01/22 01:39:46;;;;;;;2.85;1.50;;;;;;;-0.62;57.71;100259.66;5075786;28;20048;-93
2024/01/22 01:42:11;;;;;;;2.67;0.93;;;;;;;-1.00;57.88;100195.34;5078896;28;20135;-93
2024/01/22 01:44:49;;;;;;;3.05;1.38;;;;;;;-1.05;55.49;100203.88;5078531;28;20099;-95
2024/01/22 01:47:15;;;;;;;4.30;1.77;;;;;;;-1.05;58.79;100227.38;5076648;28;20059;-94
2024/01/22 01:49:41;;;;;;;3.80;1.63;;;;;;;-0.93;58.98;100265.28;5076877;28;20048;-93
2024/01/22 01:52:08;;;;;;;3.00;1.58;;;;;;;-1.31;57.96;100197.53;5078773;28;20584;-93
2024/01/22 01:54:38;;;;;;;3.38;1.73;;;;;;;-0.85;58.68;100258.66;5076284;28;20452;-94
2024/01/22 01:57:05;;;;;;;2.83;1.83;;;;;;;-1.36;59.84;100177.31;5078455;28;20036;-94
2024/01/22 01:59:31;;;;;;;3.35;2.20;;;;;;;-0.79;58.76;100240.66;5076977;28;20040;-93
2024/01/22 02:01:57;;;;;;;2.50;1.00;;;;;;;-0.72;58.79;100242.69;5077190;28;20062;-94
2024/01/22 02:04:23;;;;;;;5.35;1.17;;;;;;;-1.10;58.01;100171.47;5076674;28;20036;-93
2024/01/22 02:06:49;;;;;;;1.33;0.85;;;;;;;-0.49;58.45;100253.22;5078085;28;20111;-94
2024/01/22 02:09:16;;;;;;;4.25;1.30;;;;;;;-0.54;61.15;100232.13;5077651;28;20047;-93
2024/01/22 02:11:43;;;;;;;4.07;1.65;;;;;;;-0.78;61.41;100169.31;5074749;28;20382;-94
2024/01/22 02:14:09;;;;;;;1.75;1.40;;;;;;;-0.67;61.89;100208.94;5076540;28;20044;-93
2024/01/22 02:16:35;;;;;;;2.67;1.10;;;;;;;-0.41;62.79;100251.81;5076922;28;20101;-94
2024/01/22 02:19:01;;;;;;;6.07;1.90;;;;;;;-0.78;61.60;100171.03;5077917;28;20497;-94
2024/01/22 02:21:27;;;;;;;3.63;1.77;;;;;;;-0.38;61.76;100256.25;5077614;28;20111;-93
2024/01/22 02:23:54;;;;;;;3.67;1.63;;;;;;;-0.86;62.27;100165.50;5077031;28;20508;-93
2024/01/22 02:26:20;;;;;;;1.83;1.13;;;;;;;-0.45;61.25;100271.69;5078189;28;20493;-92
2024/01/22 02:28:46;;;;;;;3.13;1.17;;;;;;;-1.12;60.30;100170.53;5078181;28;20511;-94
2024/01/22 02:31:12;;;;;;;2.55;1.20;;;;;;;-0.77;62.27;100220.72;5076842;28;20040;-95
2024/01/22 02:33:46;;;;;;;3.72;1.30;;;;;;;-1.14;63.86;100184.34;5077552;28;20040;-93
2024/01/22 02:36:18;;;;;;;3.53;1.20;;;;;;;-1.33;61.87;100162.66;5076562;28;20042;-94
2024/01/22 02:38:44;;;;;;;5.30;1.30;;;;;;;-1.05;61.19;100222.16;5075764;28;20071;-94
2024/01/22 02:41:11;;;;;;;2.17;0.85;;;;;;;-0.77;60.22;100254.66;5078373;28;20044;-95
2024/01/22 02:43:38;;;;;;;3.80;1.05;;;;;;;-0.68;60.72;100256.78;5078281;28;20072;-94
2024/01/22 02:46:04;;;;;;;2.08;1.05;;;;;;;-1.01;60.24;100188.38;5076646;28;20085;-94
2024/01/22 02:48:32;;;;;;;2.60;0.88;;;;;;;-0.94;60.23;100204.34;5077444;28;20040;-94
2024/01/22 02:50:59;;;;;;;1.70;0.90;;;;;;;-0.79;61.14;100211.91;5077214;28;20136;-94
2024/01/22 02:53:24;;;;;;;4.00;1.75;;;;;;;-0.92;63.76;100192.22;5078290;28;20072;-93
2024/01/22 02:55:50;;;;;;;3.90;1.63;;;;;;;-0.46;64.21;100256.81;5076055;28;20071;-95
2024/01/22 02:58:18;;;;;;;2.75;1.38;;;;;;;-0.31;64.87;100282.69;5077723;28;20040;-93
2024/01/22 03:00:43;;;;;;;3.10;1.10;;;;;;;-0.76;65.84;100208.53;5076451;28;20509;-94
2024/01/22 03:03:09;;;;;;;4.18;1.73;;;;;;;-0.97;66.45;100180.72;5077493;28;20028;-94
2024/01/22 03:05:35;;;;;;;3.15;1.02;;;;;;;-0.69;66.49;100253.28;5074897;28;20036;-94
2024/01/22 03:08:01;;;;;;;1.35;0.90;;;;;;;-1.17;65.88;100172.06;5077393;28;20048;-93
2024/01/22 03:10:26;;;;;;;3.45;1.05;;;;;;;-1.06;64.04;100216.91;5077974;28;20036;-94
2024/01/22 03:12:52;;;;;;;2.22;1.17;;;;;;;-1.28;65.11;100186.34;5077837;28;20089;-93
2024/01/22 03:15:19;;;;;;;1.35;1.00;;;;;;;-0.98;64.41;100230.25;5077088;28;20089;-94
2024/01/22 03:17:48;;;;;;;2.45;1.10;;;;;;;-1.37;64.75;100181.63;5075190;28;20090;-91
2024/01/22 03:20:14;;;;;;;1.80;0.90;;;;;;;-1.23;64.94;100210.06;5077421;28;20036;-93
2024/01/22 03:22:40;;;;;;;3.72;1.23;;;;;;;-1.43;64.97;100167.41;5077460;28;20584;-93
2024/01/22 03:25:07;;;;;;;2.60;1.05;;;;;;;-1.38;65.40;100173.75;5077370;28;20106;-94
2024/01/22 03:27:33;;;;;;;2.65;1.15;;;;;;;-1.37;66.48;100175.50;5077604;28;20512;-92
2024/01/22 03:29:59;;;;;;;3.35;1.20;;;;;;;-1.13;67.94;100241.84;5077022;28;20127;-94
2024/01/22 03:32:32;;;;;;;2.83;1.30;;;;;;;-1.07;68.25;100270.78;5076744;28;20040;-94
2024/01/22 03:34:58;;;;;;;2.72;1.20;;;;;;;-1.35;68.26;100233.88;5072092;28;20036;-94
2024/01/22 03:37:24;;;;;;;1.45;1.23;;;;;;;-1.25;68.10;100236.97;5077509;28;20048;-94
2024/01/22 03:39:50;;;;;;;1.73;1.15;;;;;;;-1.54;68.73;100169.56;5076121;28;20036;-94
2024/01/22 03:42:16;;;;;;;3.15;1.25;;;;;;;-1.31;69.41;100197.53;5076473;28;20044;-94
2024/01/22 03:44:42;;;;;;;1.40;0.85;;;;;;;-1.15;69.77;100250.41;5077236;28;20047;-93
2024/01/22 03:47:08;;;;;;;1.80;1.15;;;;;;;-1.10;69.43;100248.91;5075917;28;20040;-94
2024/01/22 03:49:35;;;;;;;2.00;1.20;;;;;;;-1.14;70.08;100254.81;5071685;28;20047;-93
2024/01/22 03:52:05;;;;;;;1.92;1.00;;;;;;;-1.29;69.95;100216.78;5075947;28;20036;-94
2024/01/22 03:54:31;;;;;;;2.50;1.10;;;;;;;-1.52;68.99;100187.09;5071955;28;20050;-92
2024/01/22 03:56:56;;;;;;;2.00;0.82;;;;;;;-1.28;68.77;100241.16;5076731;28;20127;-93
2024/01/22 03:59:23;;;;;;;2.58;0.88;;;;;;;-1.21;68.40;100250.13;5077053;28;20054;-95
2024/01/22 04:01:48;;;;;;;1.77;0.98;;;;;;;-1.36;67.45;100246.03;5075382;28;20032;-94
2024/01/22 04:04:14;;;;;;;1.05;0.85;;;;;;;-1.54;66.63;100200.88;5076995;28;20107;-93
2024/01/22 04:06:41;;;;;;;0.82;0.80;;;;;;;-1.41;66.75;100229.31;5073389;28;20439;-93
2024/01/22 04:09:08;;;;;;;3.05;1.40;;;;;;;-1.33;67.51;100260.94;5072071;28;20052;-93
2024/01/22 04:11:33;;;;;;;1.92;0.90;;;;;;;-1.82;67.16;100176.19;5073516;28;20064;-93
2024/01/22 04:13:59;;;;;;;1.70;0.77;;;;;;;-1.83;67.11;100157.84;5076768;28;20516;-94
2024/01/22 04:16:25;;;;;;;1.73;1.17;;;;;;;-1.52;68.33;100226.22;5074987;28;20037;-94
2024/01/22 04:18:51;;;;;;;9.48;1.40;;;;;;;-1.55;68.45;100217.34;5076637;28;20086;-94
2024/01/22 04:21:17;;;;;;;1.80;0.77;;;;;;;-1.51;69.77;100238.44;5075828;28;20045;-93
2024/01/22 04:23:44;;;;;;;2.42;0.98;;;;;;;-1.83;69.72;100170.91;5075509;28;20077;-93
2024/01/22 04:26:10;;;;;;;2.42;0.90;;;;;;;-1.43;69.98;100253.53;5076729;28;20386;-94
2024/01/22 04:28:35;;;;;;;1.40;0.85;;;;;;;-1.66;69.15;100250.78;5076238;28;20040;-93
2024/01/22 04:31:01;;;;;;;1.10;0.73;;;;;;;-1.71;69.30;100244.47;5074840;28;20036;-93
2024/01/22 04:33:27;;;;;;;1.15;0.90;;;;;;;-2.08;69.99;100177.59;5075949;28;20131;-94
2024/01/22 04:35:53;;;;;;;3.03;1.48;;;;;;;-1.82;70.28;100224.81;5075576;28;20124;-95
2024/01/22 04:38:19;;;;;;;2.08;1.00;;;;;;;-1.61;70.72;100283.16;5074724;28;20102;-93
2024/01/22 04:40:46;;;;;;;4.03;1.75;;;;;;;-2.10;71.16;100194.88;5076483;28;20090;-93
2024/01/22 04:43:12;;;;;;;1.90;1.10;;;;;;;-2.18;72.00;100191.91;5073950;28;20587;-94
2024/01/22 04:45:37;;;;;;;3.03;1.42;;;;;;;-2.08;71.87;100232.34;5074909;28;20123;-93
2024/01/22 04:48:04;;;;;;;4.00;1.50;;;;;;;-2.01;72.25;100246.56;5076330;28;20075;-94
2024/01/22 04:50:30;;;;;;;2.13;1.48;;;;;;;-2.07;71.52;100236.72;5073218;28;20474;-93
2024/01/22 04:52:56;;;;;;;8.77;1.42;;;;;;;-2.14;72.33;100222.50;5076344;28;20072;-94
2024/01/22 04:55:21;;;;;;;2.90;1.60;;;;;;;-2.27;72.93;100208.00;5076403;28;20036;-93
2024/01/22 04:57:49;;;;;;;4.40;1.67;;;;;;;-2.24;72.99;100211.56;5076063;28;20071;-94
2024/01/22 05:00:16;;;;;;;2.25;1.30;;;;;;;-1.72;73.00;100306.16;5074821;28;20040;-94
2024/01/22 05:02:42;;;;;;;1.75;1.20;;;;;;;-2.03;72.24;100253.41;5075751;28;20040;-93
2024/01/22 05:05:08;;;;;;;1.63;1.23;;;;;;;-2.00;72.29;100259.63;5074877;28;20044;-94
2024/01/22 05:07:34;;;;;;;2.10;1.45;;;;;;;-1.89;72.72;100302.78;5075949;28;20362;-93
2024/01/22 05:10:04;;;;;;;2.30;1.48;;;;;;;-1.99;72.55;100284.00;5074785;28;20597;-93
2024/01/22 05:12:30;;;;;;;3.17;1.10;;;;;;;-2.16;72.84;100268.44;5076116;28;20055;-94
2024/01/22 05:14:57;;;;;;;1.77;0.85;;;;;;;-1.79;72.15;100326.66;5075477;28;20040;-93
2024/01/22 05:17:23;;;;;;;2.75;1.48;;;;;;;-1.94;73.21;100298.16;5072932;28;20041;-94
2024/01/22 05:19:49;;;;;;;4.65;1.45;;;;;;;-2.17;73.65;100261.47;5075416;28;20036;-92
2024/01/22 05:22:15;;;;;;;6.00;1.63;;;;;;;-2.38;74.77;100252.63;5074943;28;20115;-93
2024/01/22 05:24:41;;;;;;;4.53;1.20;;;;;;;-2.52;74.61;100225.88;5076091;28;20052;-93
2024/01/22 05:27:09;;;;;;;2.63;1.55;;;;;;;-2.19;75.10;100262.19;5075249;28;20036;-94
2024/01/22 05:29:35;;;;;;;4.22;1.85;;;;;;;-2.43;75.03;100235.84;5073652;28;20095;-94
2024/01/22 05:32:02;;;;;;;3.60;1.15;;;;;;;-2.06;75.13;100288.00;5074532;28;20036;-95
2024/01/22 05:34:28;;;;;;;4.65;2.00;;;;;;;-2.38;74.64;100234.38;5075674;28;20140;-94
2024/01/22 05:36:55;;;;;;;6.22;2.63;;;;;;;-2.44;75.07;100254.91;5075329;28;20060;-92
2024/01/22 05:39:21;;;;;;;5.95;2.13;;;;;;;-2.31;75.06;100279.03;5075106;28;20032;-94
2024/01/22 05:41:48;;;;;;;3.33;1.73;;;;;;;-2.38;75.43;100250.91;5075459;28;20050;-94
2024/01/22 05:44:14;;;;;;;3.00;1.20;;;;;;;-2.49;76.04;100252.97;5075406;28;20086;-94
2024/01/22 05:46:40;;;;;;;2.55;1.55;;;;;;;-2.05;76.72;100351.47;5071100;28;20056;-93
2024/01/22 05:49:07;;;;;;;2.75;1.52;;;;;;;-2.32;75.46;100308.53;5074163;28;20052;-93
2024/01/22 05:51:33;;;;;;;3.38;1.75;;;;;;;-2.21;75.50;100319.47;5068703;28;20037;-93
2024/01/22 05:53:59;;;;;;;3.50;1.73;;;;;;;-2.29;75.39;100311.25;5075494;28;21580;-94
2024/01/22 05:56:27;;;;;;;2.53;1.02;;;;;;;-2.22;74.56;100319.38;5074714;28;20037;-94
2024/01/22 05:58:53;;;;;;;3.55;1.58;;;;;;;-2.31;73.70;100305.06;5076751;28;20048;-94
2024/01/22 06:01:19;;;;;;;2.30;1.20;;;;;;;-2.27;73.12;100287.91;5075326;28;20117;-94
2024/01/22 06:03:45;;;;;;;2.15;1.42;;;;;;;-2.14;74.75;100329.34;5076853;28;20150;-94
2024/01/22 06:06:12;;;;;;;4.38;2.03;;;;;;;-2.48;75.32;100253.88;5076958;28;20101;-94
2024/01/22 06:08:40;;;;;;;5.10;1.35;;;;;;;-2.27;75.21;100314.84;5076932;28;20053;-94
2024/01/22 06:11:06;;;;;;;1.65;1.23;;;;;;;-2.52;73.88;100267.56;5075816;28;20036;-94
2024/01/22 06:13:33;;;;;;;2.78;1.35;;;;;;;-2.53;74.25;100255.38;5074678;28;20047;-94
2024/01/22 06:15:58;;;;;;;3.88;1.67;;;;;;;-2.27;74.15;100290.50;5074417;28;20059;-94
2024/01/22 06:18:24;;;;;;;5.13;1.85;;;;;;;-2.39;75.85;100292.50;5075086;28;20048;-93
2024/01/22 06:20:50;;;;;;;3.85;2.00;;;;;;;-2.33;75.65;100311.94;5074701;28;20060;-93
2024/01/22 06:23:18;;;;;;;5.78;1.42;;;;;;;-2.21;73.36;100331.56;5074654;28;20044;-93
2024/01/22 06:25:45;;;;;;;3.97;1.52;;;;;;;-2.26;73.46;100333.97;5075186;28;20043;-92
2024/01/22 06:28:10;;;;;;;1.75;1.17;;;;;;;-2.67;74.18;100277.22;5074435;28;20053;-92
2024/01/22 06:30:36;;;;;;;2.08;1.30;;;;;;;-2.72;74.24;100270.06;5073049;28;20048;-93
2024/01/22 06:33:02;;;;;;;4.45;1.17;;;;;;;-2.52;73.99;100293.59;5077590;28;20040;-94
2024/01/22 06:35:28;;;;;;;3.80;1.80;;;;;;;-2.11;73.24;100349.47;5078224;28;20028;-92
2024/01/22 06:37:54;;;;;;;2.42;1.35;;;;;;;-2.62;74.27;100291.38;5079147;28;20041;-92
2024/01/22 06:40:21;;;;;;;1.85;1.10;;;;;;;-2.21;74.04;100374.19;5079584;28;20045;-93
2024/01/22 06:42:47;;;;;;;4.10;1.60;;;;;;;-2.65;72.97;100278.19;5079843;28;20134;-93
2024/01/22 06:45:13;;;;;;;8.68;1.60;;;;;;;-2.45;73.50;100321.75;5078493;28;20376;-92
2024/01/22 06:47:40;;;;;;;7.35;2.63;;;;;;;-2.67;74.15;100287.63;5079598;28;20519;-94
2024/01/22 06:50:06;;;;;;;3.45;1.70;;;;;;;-2.67;74.42;100275.50;5081564;28;20086;-93
2024/01/22 06:52:32;;;;;;;2.22;1.33;;;;;;;-2.36;74.65;100329.13;5080764;28;20135;-94
2024/01/22 06:54:58;;;;;;;4.43;1.40;;;;;;;-2.61;74.34;100278.41;5080832;28;20131;-93
2024/01/22 06:57:25;;;;;;;3.17;1.45;;;;;;;-2.41;74.78;100326.28;5080735;28;20089;-94
2024/01/22 06:59:52;;;;;;;1.75;1.23;;;;;;;-2.02;75.36;100389.00;5080562;28;20067;-94
2024/01/22 07:02:18;;;;;;;4.63;1.75;;;;;;;-2.46;76.35;100303.44;5080156;28;20048;-93
2024/01/22 07:04:46;;;;;;;4.20;1.70;;;;;;;-2.30;76.18;100335.53;5079872;28;20041;-93
2024/01/22 07:07:13;;;;;;;6.30;2.47;;;;;;;-2.36;75.41;100326.53;5080935;28;20116;-94
2024/01/22 07:09:39;;;;;;;6.60;2.05;;;;;;;-2.17;75.05;100346.56;5084075;28;20078;-94
2024/01/22 07:12:05;;;;;;;5.20;2.17;;;;;;;-2.41;75.51;100297.63;5083374;28;20044;-92
2024/01/22 07:14:33;;;;;;;3.50;2.22;;;;;;;-2.11;75.78;100318.19;5082553;28;20048;-93
2024/01/22 07:17:00;;;;;;;6.25;3.10;;;;;;;-1.81;75.97;100368.31;5080011;28;20485;-95
2024/01/22 07:19:26;;;;;;;9.73;4.15;;;;;;;-1.97;75.69;100343.22;5080105;28;20055;-95
2024/01/22 07:21:52;;;;;;;7.80;3.05;;;;;;;-1.97;75.63;100338.00;5080520;28;20047;-93
2024/01/22 07:24:17;;;;;;;7.60;3.70;;;;;;;-1.90;75.77;100347.91;5079893;28;20044;-94
2024/01/22 07:26:43;;;;;;;9.43;3.88;;;;;;;-1.97;75.70;100327.56;5079350;28;20482;-94
2024/01/22 07:29:09;;;;;;;8.57;3.50;;;;;;;-1.84;75.61;100342.09;5079604;28;20044;-94
2024/01/22 07:31:36;;;;;;;8.35;3.38;;;;;;;-1.45;75.16;100390.03;5079976;28;20036;-93
2024/01/22 07:34:02;;;;;;;7.75;2.95;;;;;;;-1.37;74.08;100385.16;5079760;28;20064;-94
2024/01/22 07:36:28;;;;;;;8.63;3.67;;;;;;;-1.11;73.93;100422.91;5081682;28;20048;-93
2024/01/22 07:38:56;;;;;;;5.57;2.45;;;;;;;-1.11;73.17;100401.13;5082376;28;20112;-92
2024/01/22 07:41:22;;;;;;;8.10;3.67;;;;;;;-1.01;72.45;100405.97;5081192;28;20471;-93
2024/01/22 07:43:48;;;;;;;7.45;2.60;;;;;;;-1.16;71.85;100371.31;5081117;28;20044;-94
2024/01/22 07:46:14;;;;;;;6.60;1.92;;;;;;;-1.23;70.92;100343.16;5080381;28;20044;-94
2024/01/22 07:48:41;;;;;;;5.85;2.88;;;;;;;-0.87;69.94;100383.97;5080291;28;20066;-93
2024/01/22 07:51:07;;;;;;;6.97;3.85;;;;;;;-1.01;70.94;100332.84;5085063;28;20032;-92
2024/01/22 07:53:33;;;;;;;8.23;3.47;;;;;;;-0.55;70.43;100396.66;5085237;28;20071;-93
2024/01/22 07:55:59;;;;;;;6.75;3.53;;;;;;;-0.74;70.15;100354.03;5083279;28;20382;-93
2024/01/22 07:58:25;;;;;;;6.20;2.47;;;;;;;-0.59;68.74;100345.09;5083904;28;20047;-92
2024/01/22 08:00:51;;;;;;;12.60;4.15;;;;;;;-0.47;68.05;100343.91;5079575;28;20060;-93
2024/01/22 08:03:16;;;;;;;5.50;3.03;;;;;;;-0.05;67.96;100384.84;5081962;28;20048;-92
2024/01/22 08:05:49;;;;;;;9.10;3.78;;;;;;;-0.01;65.88;100373.69;5080178;28;20063;-94
2024/01/22 08:08:15;;;;;;;6.30;3.08;;;;;;;0.26;65.73;100386.09;5072433;28;20055;-96
2024/01/22 08:10:40;;;;;;;10.80;3.83;;;;;;;0.22;65.04;100352.78;5077820;28;20032;-92
2024/01/22 08:13:06;;;;;;;6.65;3.78;;;;;;;0.67;64.39;100421.75;5076891;28;20045;-95
2024/01/22 08:15:32;;;;;;;8.50;4.32;;;;;;;0.78;63.68;100401.22;5076244;28;20124;-95
2024/01/22 08:17:58;;;;;;;7.43;3.22;;;;;;;0.63;63.63;100361.34;5077156;28;20036;-92
2024/01/22 08:20:24;;;;;;;18.65;6.05;;;;;;;1.14;62.95;100419.19;5076317;28;20053;-92
2024/01/22 08:22:52;;;;;;;11.70;5.45;;;;;;;0.94;63.04;100358.19;5077299;28;20075;-92
2024/01/22 08:25:20;;;;;;;12.68;5.55;;;;;;;1.40;62.77;100420.13;5076931;28;20052;-94
2024/01/22 08:27:46;;;;;;;8.23;4.13;;;;;;;1.13;62.02;100347.56;5073363;28;20048;-94
2024/01/22 08:30:13;;;;;;;9.32;3.97;;;;;;;1.43;61.16;100365.19;5076930;28;20166;-94
2024/01/22 08:32:38;;;;;;;8.20;3.70;;;;;;;1.73;60.67;100407.31;5076692;28;20082;-94
2024/01/22 08:35:05;;;;;;;8.27;3.67;;;;;;;1.70;59.69;100381.00;5073468;28;20044;-95
2024/01/22 08:37:31;;;;;;;9.38;3.63;;;;;;;1.82;60.11;100384.03;5074600;28;20032;-94
2024/01/22 08:39:58;;;;;;;5.32;2.80;;;;;;;1.85;59.78;100357.03;5075962;28;20450;-94
2024/01/22 08:42:24;;;;;;;4.07;2.53;;;;;;;1.85;59.30;100346.53;5073492;28;20179;-94
2024/01/22 08:44:50;;;;;;;7.80;3.30;;;;;;;2.22;59.79;100380.09;5076517;28;20076;-95
2024/01/22 08:47:16;;;;;;;2.70;1.77;;;;;;;2.11;48.47;100343.88;5076747;28;20489;-94
2024/01/22 08:49:41;;;;;;;3.88;1.70;;;;;;;2.36;46.88;100395.41;5077071;28;20044;-96
2024/01/22 08:52:07;;;;;;;4.00;1.65;;;;;;;2.08;47.05;100354.25;5077624;28;20101;-93
2024/01/22 08:54:33;;;;;;;3.45;1.80;;;;;;;1.56;48.65;100362.19;5078895;28;20041;-95
2024/01/22 08:57:01;;;;;;;2.70;1.25;;;;;;;1.57;49.26;100418.13;5078965;28;20094;-95
2024/01/22 08:59:27;;;;;;;5.00;2.08;;;;;;;1.60;50.33;100416.47;5077684;28;20055;-94
2024/01/22 09:01:53;;;;;;;3.92;1.42;;;;;;;1.67;50.22;100375.66;5078553;28;20048;-95
2024/01/22 09:04:19;;;;;;;3.38;1.60;;;;;;;2.08;51.72;100419.84;5078214;28;20107;-95
2024/01/22 09:06:45;;;;;;;3.00;1.75;;;;;;;2.11;50.67;100371.00;5079053;28;20075;-96
2024/01/22 09:09:11;;;;;;;3.50;1.77;;;;;;;2.22;51.40;100345.09;5080606;28;20058;-94
2024/01/22 09:11:37;;;;;;;3.47;1.40;;;;;;;2.41;50.23;100339.59;5078475;28;20044;-96
2024/01/22 09:14:04;;;;;;;5.07;1.90;;;;;;;2.55;49.35;100345.25;5078112;28;20060;-94
2024/01/22 09:16:30;;;;;;;4.90;1.77;;;;;;;2.46;48.87;100365.97;5079008;28;20100;-96
2024/01/22 09:18:57;;;;;;;4.55;2.05;;;;;;;2.41;49.08;100351.84;5079196;28;20492;-95
2024/01/22 09:21:23;;;;;;;4.25;1.60;;;;;;;2.63;48.95;100341.13;5076130;28;20040;-96
2024/01/22 09:23:49;;;;;;;5.00;3.17;;;;;;;3.31;49.63;100407.91;5077117;28;20151;-95
2024/01/22 09:26:15;;;;;;;5.88;1.83;;;;;;;3.14;48.39;100329.44;5077117;28;20533;-94
2024/01/22 09:28:40;;;;;;;5.13;2.15;;;;;;;3.32;47.25;100341.31;5077669;28;20068;-95
2024/01/22 09:31:08;;;;;;;5.72;2.70;;;;;;;3.47;48.19;100386.44;5077468;28;20131;-94
2024/01/22 09:33:33;;;;;;;3.70;1.60;;;;;;;3.36;47.73;100327.41;5078330;28;20554;-95
2024/01/22 09:36:03;;;;;;;4.82;2.40;;;;;;;3.72;46.68;100355.53;5078065;28;20039;-95
2024/01/22 09:38:29;;;;;;;7.38;2.72;;;;;;;3.61;46.96;100329.84;5077922;28;20394;-95
2024/01/22 09:40:55;;;;;;;8.40;3.40;;;;;;;3.78;47.35;100327.66;5078499;28;20056;-96
2024/01/22 09:43:22;;;;;;;4.72;2.42;;;;;;;4.01;44.64;100329.94;5077024;28;20041;-95
2024/01/22 09:45:49;;;;;;;10.75;4.13;;;;;;;4.50;45.04;100396.97;5067258;28;20040;-95
2024/01/22 09:48:17;;;;;;;9.18;3.65;;;;;;;4.30;44.55;100343.81;5076577;28;20102;-95
2024/01/22 09:50:43;;;;;;;9.43;4.05;;;;;;;4.39;44.98;100322.97;5076394;28;20440;-95
2024/01/22 09:53:10;;;;;;;5.20;2.40;;;;;;;4.50;43.67;100326.72;5076317;28;20044;-95
2024/01/22 09:55:38;;;;;;;5.60;2.15;;;;;;;4.84;43.56;100345.03;5076521;28;20048;-95
2024/01/22 09:58:07;;;;;;;6.47;2.78;;;;;;;5.12;43.20;100367.59;5075764;28;20041;-95
2024/01/22 10:00:35;;;;;;;8.50;3.22;;;;;;;4.97;45.16;100307.53;5075660;28;20028;-94
2024/01/22 10:03:03;;;;;;;9.23;4.25;;;;;;;5.54;44.89;100386.00;5075976;28;20459;-96
2024/01/22 10:05:30;;;;;;;14.13;4.32;;;;;;;5.53;45.99;100360.50;5075718;28;20056;-95
2024/01/22 10:07:56;;;;;;;8.82;3.90;;;;;;;5.55;46.39;100344.66;5075956;28;20048;-96
2024/01/22 10:10:23;;;;;;;5.70;2.88;;;;;;;5.45;46.13;100309.31;5078008;28;20048;-94
2024/01/22 10:12:59;;;;;;;8.35;4.15;;;;;;;5.72;46.30;100331.78;5079785;28;20052;-96
2024/01/22 10:15:26;;;;;;;9.32;4.18;;;;;;;5.50;46.37;100278.63;5079490;28;20036;-94
2024/01/22 10:17:52;;;;;;;8.55;3.33;;;;;;;5.55;46.28;100276.06;5079768;28;20044;-96
2024/01/22 10:20:22;;;;;;;7.57;2.83;;;;;;;5.89;45.97;100327.69;5078993;28;20116;-95
2024/01/22 10:23:00;;;;;;;7.45;2.90;;;;;;;5.76;45.77;100301.94;5080069;28;20059;-95
2024/01/22 10:25:26;;;;;;;6.25;2.72;;;;;;;6.01;45.84;100329.69;5079599;28;20036;-95
2024/01/22 10:28:07;;;;;;;5.93;3.47;;;;;;;6.23;44.82;100359.09;5079332;28;20481;-96
2024/01/22 10:30:33;;;;;;;6.70;3.42;;;;;;;5.80;45.01;100269.47;5079226;28;20075;-94
2024/01/22 10:33:08;;;;;;;5.60;2.80;;;;;;;6.11;45.66;100310.47;5079606;28;20055;-95
2024/01/22 10:35:34;;;;;;;7.50;3.25;;;;;;;5.93;45.47;100268.78;5080254;28;20497;-95
2024/01/22 10:38:12;;;;;;;6.05;3.03;;;;;;;5.85;45.19;100249.28;5080050;28;20051;-95
2024/01/22 10:40:39;;;;;;;8.32;2.80;;;;;;;6.42;45.61;100344.38;5079632;28;20564;-95
2024/01/22 10:43:24;;;;;;;6.25;2.72;;;;;;;6.40;44.93;100340.84;5079690;28;20138;-96
2024/01/22 10:45:50;;;;;;;6.97;2.80;;;;;;;5.68;44.21;100246.41;5078824;28;20043;-95
2024/01/22 10:48:17;;;;;;;6.78;3.15;;;;;;;5.99;44.75;100283.88;5079027;28;20039;-96
2024/01/22 10:50:44;;;;;;;7.80;2.95;;;;;;;6.12;45.17;100295.53;5078645;28;20040;-95
2024/01/22 10:53:11;;;;;;;7.43;3.63;;;;;;;5.69;46.06;100236.72;5078987;28;20434;-95
2024/01/22 10:55:38;;;;;;;5.72;3.22;;;;;;;5.62;46.51;100230.47;5080127;28;20058;-96
2024/01/22 10:58:13;;;;;;;7.32;3.53;;;;;;;6.06;46.25;100301.59;5078924;28;20040;-93
2024/01/22 11:00:43;;;;;;;10.88;3.90;;;;;;;5.90;46.93;100259.94;5079275;28;20047;-95
2024/01/22 11:03:12;;;;;;;5.55;3.42;;;;;;;5.88;48.66;100259.03;5078245;28;20056;-95
2024/01/22 11:05:43;;;;;;;6.45;3.70;;;;;;;5.68;49.48;100237.56;5078665;28;20109;-95
2024/01/22 11:08:11;;;;;;;;;;;;;;;6.05;49.45;100294.53;5079097;28;20060;-93
2024/01/22 11:10:42;;;;;;;10.30;3.47;;;;;;;5.62;49.83;100208.47;5078538;28;19986;-94
2024/01/22 11:13:09;;;;;;;7.85;3.55;;;;;;;5.60;50.10;100202.28;5078300;28;20059;-94
2024/01/22 11:15:35;;;;;;;11.35;3.60;;;;;;;5.95;50.68;100256.53;5078603;28;20043;-96
2024/01/22 11:18:01;;;;;;;6.82;3.63;;;;;;;5.58;50.39;100194.31;5079617;28;20040;-95
2024/01/22 11:20:27;;;;;;;7.95;3.72;;;;;;;5.72;50.10;100234.13;5079612;28;20045;-95
2024/01/22 11:23:05;;;;;;;9.20;3.53;;;;;;;5.76;49.49;100238.59;5082541;28;20097;-94
2024/01/22 11:25:33;;;;;;;5.82;3.70;;;;;;;5.80;50.16;100229.84;5083035;28;20549;-95
2024/01/22 11:28:02;;;;;;;7.15;3.28;;;;;;;5.86;49.48;100218.53;5083750;28;20044;-95